sensor_id;sensor_type;location;lat;lon;timestamp;temperature;humidity
13744;DHT22;6943;52.368;9.966;2023-10-08T00:00:45;12.80;99.90
13744;DHT22;6943;52.368;9.966;2023-10-08T00:03:13;12.90;99.90
13744;DHT22;6943;52.368;9.966;2023-10-08T00:05:39;12.90;99.90
13744;DHT22;6943;52.368;9.966;2023-10-08T00:08:05;13.00;99.90
13744;DHT22;6943;52.368;9.966;2023-10-08T00:10:38;12.90;99.90
13744;DHT22;6943;52.368;9.966;2023-10-08T00:13:07;13.00;99.90
13744;DHT22;6943;52.368;9.966;2023-10-08T00:15:35;13.00;99.90
13744;DHT22;6943;52.368;9.966;2023-10-08T00:18:03;13.10;99.90
13744;DHT22;6943;52.368;9.966;2023-10-08T00:20:31;13.10;99.90
13744;DHT22;6943;52.368;9.966;2023-10-08T00:23:03;13.20;99.90
13744;DHT22;6943;52.368;9.966;2023-10-08T00:25:33;13.20;99.90
13744;DHT22;6943;52.368;9.966;2023-10-08T00:27:59;13.20;99.90
13744;DHT22;6943;52.368;9.966;2023-10-08T00:30:27;13.00;99.90
13744;DHT22;6943;52.368;9.966;2023-10-08T00:32:52;12.90;99.90
13744;DHT22;6943;52.368;9.966;2023-10-08T00:35:18;12.80;99.90
13744;DHT22;6943;52.368;9.966;2023-10-08T00:37:48;12.70;99.90
13744;DHT22;6943;52.368;9.966;2023-10-08T00:40:14;12.50;99.90
13744;DHT22;6943;52.368;9.966;2023-10-08T00:42:47;12.40;99.90
13744;DHT22;6943;52.368;9.966;2023-10-08T00:45:12;12.40;99.90
13744;DHT22;6943;52.368;9.966;2023-10-08T00:47:41;12.40;99.90
13744;DHT22;6943;52.368;9.966;2023-10-08T00:50:10;12.20;99.90
13744;DHT22;6943;52.368;9.966;2023-10-08T00:52:47;12.00;99.90
13744;DHT22;6943;52.368;9.966;2023-10-08T00:55:25;11.90;99.90
13744;DHT22;6943;52.368;9.966;2023-10-08T00:57:57;11.70;99.90
13744;DHT22;6943;52.368;9.966;2023-10-08T01:00:25;11.60;99.90
13744;DHT22;6943;52.368;9.966;2023-10-08T01:02:58;11.50;99.90
13744;DHT22;6943;52.368;9.966;2023-10-08T01:05:26;11.40;99.90
13744;DHT22;6943;52.368;9.966;2023-10-08T01:08:09;11.40;99.90
13744;DHT22;6943;52.368;9.966;2023-10-08T01:10:38;11.30;99.90
13744;DHT22;6943;52.368;9.966;2023-10-08T01:13:04;11.40;99.90
13744;DHT22;6943;52.368;9.966;2023-10-08T01:15:30;11.30;99.90
13744;DHT22;6943;52.368;9.966;2023-10-08T01:18:01;11.50;99.90
13744;DHT22;6943;52.368;9.966;2023-10-08T01:20:27;11.60;99.90
13744;DHT22;6943;52.368;9.966;2023-10-08T01:23:10;11.80;99.90
13744;DHT22;6943;52.368;9.966;2023-10-08T01:25:39;11.90;51.30
13744;DHT22;6943;52.368;9.966;2023-10-08T01:28:07;12.00;1.00
13744;DHT22;6943;52.368;9.966;2023-10-08T01:30:54;12.10;1.00
13744;DHT22;6943;52.368;9.966;2023-10-08T01:33:22;12.20;1.00
13744;DHT22;6943;52.368;9.966;2023-10-08T01:35:48;12.30;1.00
13744;DHT22;6943;52.368;9.966;2023-10-08T01:38:16;12.40;1.00
13744;DHT22;6943;52.368;9.966;2023-10-08T01:40:48;12.50;1.00
13744;DHT22;6943;52.368;9.966;2023-10-08T01:43:16;12.60;1.00
13744;DHT22;6943;52.368;9.966;2023-10-08T01:45:43;12.60;1.00
13744;DHT22;6943;52.368;9.966;2023-10-08T01:48:09;12.70;1.00
13744;DHT22;6943;52.368;9.966;2023-10-08T01:50:36;12.70;1.00
13744;DHT22;6943;52.368;9.966;2023-10-08T01:53:02;12.80;1.00
13744;DHT22;6943;52.368;9.966;2023-10-08T01:55:30;12.80;1.00
13744;DHT22;6943;52.368;9.966;2023-10-08T01:57:59;12.80;1.00
13744;DHT22;6943;52.368;9.966;2023-10-08T02:00:24;12.80;1.00
13744;DHT22;6943;52.368;9.966;2023-10-08T02:02:52;12.90;1.00
13744;DHT22;6943;52.368;9.966;2023-10-08T02:05:19;12.90;1.00
13744;DHT22;6943;52.368;9.966;2023-10-08T02:07:46;12.80;1.00
13744;DHT22;6943;52.368;9.966;2023-10-08T02:10:12;12.80;1.00
13744;DHT22;6943;52.368;9.966;2023-10-08T02:12:42;12.80;1.00
13744;DHT22;6943;52.368;9.966;2023-10-08T02:15:08;12.80;1.00
13744;DHT22;6943;52.368;9.966;2023-10-08T02:17:37;12.80;1.00
13744;DHT22;6943;52.368;9.966;2023-10-08T02:20:02;12.70;1.00
13744;DHT22;6943;52.368;9.966;2023-10-08T02:22:31;12.70;1.00
13744;DHT22;6943;52.368;9.966;2023-10-08T02:24:57;12.70;1.00
13744;DHT22;6943;52.368;9.966;2023-10-08T02:27:27;12.70;1.00
13744;DHT22;6943;52.368;9.966;2023-10-08T02:29:53;12.70;1.00
13744;DHT22;6943;52.368;9.966;2023-10-08T02:32:18;12.80;1.00
13744;DHT22;6943;52.368;9.966;2023-10-08T02:34:44;12.80;1.00
13744;DHT22;6943;52.368;9.966;2023-10-08T02:37:10;12.80;1.00
13744;DHT22;6943;52.368;9.966;2023-10-08T02:39:38;12.80;1.00
13744;DHT22;6943;52.368;9.966;2023-10-08T02:42:05;12.80;1.00
13744;DHT22;6943;52.368;9.966;2023-10-08T02:44:36;12.80;1.00
13744;DHT22;6943;52.368;9.966;2023-10-08T02:47:10;12.80;1.00
13744;DHT22;6943;52.368;9.966;2023-10-08T02:49:47;12.90;1.00
13744;DHT22;6943;52.368;9.966;2023-10-08T02:52:17;12.90;1.00
13744;DHT22;6943;52.368;9.966;2023-10-08T02:54:43;12.80;1.00
13744;DHT22;6943;52.368;9.966;2023-10-08T02:57:09;12.80;1.00
13744;DHT22;6943;52.368;9.966;2023-10-08T02:59:42;12.70;1.00
13744;DHT22;6943;52.368;9.966;2023-10-08T03:02:12;12.70;1.00
13744;DHT22;6943;52.368;9.966;2023-10-08T03:04:45;12.70;1.00
13744;DHT22;6943;52.368;9.966;2023-10-08T03:07:14;12.70;1.00
13744;DHT22;6943;52.368;9.966;2023-10-08T03:09:57;12.70;1.00
13744;DHT22;6943;52.368;9.966;2023-10-08T03:12:29;12.70;1.00
13744;DHT22;6943;52.368;9.966;2023-10-08T03:15:02;12.80;1.00
13744;DHT22;6943;52.368;9.966;2023-10-08T03:17:42;12.70;1.00
13744;DHT22;6943;52.368;9.966;2023-10-08T03:20:15;12.70;1.00
13744;DHT22;6943;52.368;9.966;2023-10-08T03:22:55;12.70;1.00
13744;DHT22;6943;52.368;9.966;2023-10-08T03:25:22;12.80;1.00
13744;DHT22;6943;52.368;9.966;2023-10-08T03:27:50;12.80;1.00
13744;DHT22;6943;52.368;9.966;2023-10-08T03:30:15;12.80;1.00
13744;DHT22;6943;52.368;9.966;2023-10-08T03:32:42;12.80;1.00
13744;DHT22;6943;52.368;9.966;2023-10-08T03:35:09;12.80;1.00
13744;DHT22;6943;52.368;9.966;2023-10-08T03:37:37;12.80;1.00
13744;DHT22;6943;52.368;9.966;2023-10-08T03:40:15;12.90;1.00
13744;DHT22;6943;52.368;9.966;2023-10-08T03:42:51;12.90;1.00
13744;DHT22;6943;52.368;9.966;2023-10-08T03:45:16;12.90;1.00
13744;DHT22;6943;52.368;9.966;2023-10-08T03:48:02;12.90;1.00
13744;DHT22;6943;52.368;9.966;2023-10-08T03:50:32;12.90;1.00
13744;DHT22;6943;52.368;9.966;2023-10-08T03:53:07;12.90;1.00
13744;DHT22;6943;52.368;9.966;2023-10-08T03:55:38;12.80;1.00
13744;DHT22;6943;52.368;9.966;2023-10-08T03:58:07;12.80;1.00
13744;DHT22;6943;52.368;9.966;2023-10-08T04:00:38;12.70;1.00
13744;DHT22;6943;52.368;9.966;2023-10-08T04:03:08;12.70;1.00
13744;DHT22;6943;52.368;9.966;2023-10-08T04:05:38;12.70;1.00
13744;DHT22;6943;52.368;9.966;2023-10-08T04:08:29;12.70;1.00
13744;DHT22;6943;52.368;9.966;2023-10-08T04:11:23;12.70;1.00
13744;DHT22;6943;52.368;9.966;2023-10-08T04:13:57;12.70;5.70
13744;DHT22;6943;52.368;9.966;2023-10-08T04:16:27;12.70;17.80
13744;DHT22;6943;52.368;9.966;2023-10-08T04:18:54;12.80;16.10
13744;DHT22;6943;52.368;9.966;2023-10-08T04:21:22;12.80;1.00
13744;DHT22;6943;52.368;9.966;2023-10-08T04:23:48;12.80;1.00
13744;DHT22;6943;52.368;9.966;2023-10-08T04:26:17;12.80;1.00
13744;DHT22;6943;52.368;9.966;2023-10-08T04:28:43;12.80;1.00
13744;DHT22;6943;52.368;9.966;2023-10-08T04:31:09;12.80;1.00
13744;DHT22;6943;52.368;9.966;2023-10-08T04:33:44;12.70;1.00
13744;DHT22;6943;52.368;9.966;2023-10-08T04:36:10;12.50;1.00
13744;DHT22;6943;52.368;9.966;2023-10-08T04:38:43;12.40;1.00
13744;DHT22;6943;52.368;9.966;2023-10-08T04:41:11;12.40;4.70
13744;DHT22;6943;52.368;9.966;2023-10-08T04:43:37;12.40;1.00
13744;DHT22;6943;52.368;9.966;2023-10-08T04:46:04;12.30;1.00
13744;DHT22;6943;52.368;9.966;2023-10-08T04:48:45;12.20;42.20
13744;DHT22;6943;52.368;9.966;2023-10-08T04:51:11;12.20;99.90
13744;DHT22;6943;52.368;9.966;2023-10-08T04:53:38;12.10;99.90
13744;DHT22;6943;52.368;9.966;2023-10-08T04:56:10;12.20;99.90
13744;DHT22;6943;52.368;9.966;2023-10-08T04:58:40;12.20;99.90
13744;DHT22;6943;52.368;9.966;2023-10-08T05:01:06;12.20;99.90
13744;DHT22;6943;52.368;9.966;2023-10-08T05:03:56;12.20;99.90
13744;DHT22;6943;52.368;9.966;2023-10-08T05:06:23;12.30;99.90
13744;DHT22;6943;52.368;9.966;2023-10-08T05:09:09;12.30;99.90
13744;DHT22;6943;52.368;9.966;2023-10-08T05:11:44;12.30;99.90
13744;DHT22;6943;52.368;9.966;2023-10-08T05:14:17;12.30;99.90
13744;DHT22;6943;52.368;9.966;2023-10-08T05:16:56;12.30;99.90
13744;DHT22;6943;52.368;9.966;2023-10-08T05:19:34;12.40;99.90
13744;DHT22;6943;52.368;9.966;2023-10-08T05:22:15;12.40;99.90
13744;DHT22;6943;52.368;9.966;2023-10-08T05:24:56;12.40;99.90
13744;DHT22;6943;52.368;9.966;2023-10-08T05:27:35;12.40;92.00
13744;DHT22;6943;52.368;9.966;2023-10-08T05:30:26;12.40;59.80
13744;DHT22;6943;52.368;9.966;2023-10-08T05:33:08;12.40;54.20
13744;DHT22;6943;52.368;9.966;2023-10-08T05:35:45;12.40;52.00
13744;DHT22;6943;52.368;9.966;2023-10-08T05:38:12;12.50;53.00
13744;DHT22;6943;52.368;9.966;2023-10-08T05:40:47;12.50;60.60
13744;DHT22;6943;52.368;9.966;2023-10-08T05:43:31;12.50;59.20
13744;DHT22;6943;52.368;9.966;2023-10-08T05:46:13;12.60;50.90
13744;DHT22;6943;52.368;9.966;2023-10-08T05:51:42;12.70;13.70
13744;DHT22;6943;52.368;9.966;2023-10-08T05:54:14;12.60;2.60
13744;DHT22;6943;52.368;9.966;2023-10-08T05:56:59;12.60;1.00
13744;DHT22;6943;52.368;9.966;2023-10-08T05:59:41;12.60;1.00
13744;DHT22;6943;52.368;9.966;2023-10-08T06:05:12;12.60;1.00
13744;DHT22;6943;52.368;9.966;2023-10-08T06:07:47;12.70;1.00
13744;DHT22;6943;52.368;9.966;2023-10-08T06:10:29;12.70;1.00
13744;DHT22;6943;52.368;9.966;2023-10-08T06:13:10;12.80;1.00
13744;DHT22;6943;52.368;9.966;2023-10-08T06:15:39;12.80;1.00
13744;DHT22;6943;52.368;9.966;2023-10-08T06:18:11;12.90;1.00
13744;DHT22;6943;52.368;9.966;2023-10-08T06:20:40;12.90;1.00
13744;DHT22;6943;52.368;9.966;2023-10-08T06:23:09;13.00;1.00
13744;DHT22;6943;52.368;9.966;2023-10-08T06:25:35;13.00;1.00
13744;DHT22;6943;52.368;9.966;2023-10-08T06:28:14;13.10;1.00
13744;DHT22;6943;52.368;9.966;2023-10-08T06:30:41;13.20;1.00
13744;DHT22;6943;52.368;9.966;2023-10-08T06:33:08;13.20;1.00
13744;DHT22;6943;52.368;9.966;2023-10-08T06:35:34;13.30;1.00
13744;DHT22;6943;52.368;9.966;2023-10-08T06:38:01;13.30;1.00
13744;DHT22;6943;52.368;9.966;2023-10-08T06:40:33;13.30;1.00
13744;DHT22;6943;52.368;9.966;2023-10-08T06:43:06;13.30;1.00
13744;DHT22;6943;52.368;9.966;2023-10-08T06:45:43;13.40;1.00
13744;DHT22;6943;52.368;9.966;2023-10-08T06:48:09;13.40;1.00
13744;DHT22;6943;52.368;9.966;2023-10-08T06:50:43;13.60;1.00
13744;DHT22;6943;52.368;9.966;2023-10-08T06:53:10;13.80;1.00
13744;DHT22;6943;52.368;9.966;2023-10-08T06:55:42;13.90;99.90
13744;DHT22;6943;52.368;9.966;2023-10-08T06:58:08;13.90;99.90
13744;DHT22;6943;52.368;9.966;2023-10-08T07:00:35;14.00;99.90
13744;DHT22;6943;52.368;9.966;2023-10-08T07:03:06;14.10;1.00
13744;DHT22;6943;52.368;9.966;2023-10-08T07:05:50;14.30;1.00
13744;DHT22;6943;52.368;9.966;2023-10-08T07:08:29;14.40;1.00
13744;DHT22;6943;52.368;9.966;2023-10-08T07:10:57;14.50;1.00
13744;DHT22;6943;52.368;9.966;2023-10-08T07:13:24;14.70;1.00
13744;DHT22;6943;52.368;9.966;2023-10-08T07:15:51;14.60;1.00
13744;DHT22;6943;52.368;9.966;2023-10-08T07:18:18;14.70;99.90
13744;DHT22;6943;52.368;9.966;2023-10-08T07:20:51;14.80;28.00
13744;DHT22;6943;52.368;9.966;2023-10-08T07:23:21;15.00;1.00
13744;DHT22;6943;52.368;9.966;2023-10-08T07:25:59;15.20;1.00
13744;DHT22;6943;52.368;9.966;2023-10-08T07:28:37;15.50;1.00
13744;DHT22;6943;52.368;9.966;2023-10-08T07:31:02;16.40;1.00
13744;DHT22;6943;52.368;9.966;2023-10-08T07:33:28;16.90;1.00
13744;DHT22;6943;52.368;9.966;2023-10-08T07:36:01;17.30;1.00
13744;DHT22;6943;52.368;9.966;2023-10-08T07:38:38;17.90;1.00
13744;DHT22;6943;52.368;9.966;2023-10-08T07:41:05;18.20;99.90
13744;DHT22;6943;52.368;9.966;2023-10-08T07:43:31;18.30;1.00
13744;DHT22;6943;52.368;9.966;2023-10-08T07:45:58;18.40;1.00
13744;DHT22;6943;52.368;9.966;2023-10-08T07:48:24;19.10;1.00
13744;DHT22;6943;52.368;9.966;2023-10-08T07:50:55;20.40;99.90
13744;DHT22;6943;52.368;9.966;2023-10-08T07:53:22;21.60;1.00
13744;DHT22;6943;52.368;9.966;2023-10-08T07:55:50;22.10;1.00
13744;DHT22;6943;52.368;9.966;2023-10-08T07:58:15;22.80;1.00
13744;DHT22;6943;52.368;9.966;2023-10-08T08:00:42;22.90;1.00
13744;DHT22;6943;52.368;9.966;2023-10-08T08:03:07;22.40;1.00
13744;DHT22;6943;52.368;9.966;2023-10-08T08:05:33;22.50;1.00
13744;DHT22;6943;52.368;9.966;2023-10-08T08:07:59;23.10;1.00
13744;DHT22;6943;52.368;9.966;2023-10-08T08:10:31;23.90;1.00
13744;DHT22;6943;52.368;9.966;2023-10-08T08:13:03;24.00;1.00
13744;DHT22;6943;52.368;9.966;2023-10-08T08:15:32;23.90;1.00
13744;DHT22;6943;52.368;9.966;2023-10-08T08:17:58;23.90;1.00
13744;DHT22;6943;52.368;9.966;2023-10-08T08:20:24;24.20;1.00
13744;DHT22;6943;52.368;9.966;2023-10-08T08:23:00;24.10;1.00
13744;DHT22;6943;52.368;9.966;2023-10-08T08:25:38;24.10;1.00
13744;DHT22;6943;52.368;9.966;2023-10-08T08:28:11;24.80;1.00
13744;DHT22;6943;52.368;9.966;2023-10-08T08:30:43;24.90;1.00
13744;DHT22;6943;52.368;9.966;2023-10-08T08:33:14;25.20;1.00
13744;DHT22;6943;52.368;9.966;2023-10-08T08:35:56;25.40;1.00
13744;DHT22;6943;52.368;9.966;2023-10-08T08:38:22;25.60;1.00
13744;DHT22;6943;52.368;9.966;2023-10-08T08:40:49;25.00;1.00
13744;DHT22;6943;52.368;9.966;2023-10-08T08:43:16;24.90;1.00
13744;DHT22;6943;52.368;9.966;2023-10-08T08:45:42;24.70;1.00
13744;DHT22;6943;52.368;9.966;2023-10-08T08:48:09;24.70;1.00
13744;DHT22;6943;52.368;9.966;2023-10-08T08:50:35;24.70;1.00
13744;DHT22;6943;52.368;9.966;2023-10-08T08:53:02;24.80;1.00
13744;DHT22;6943;52.368;9.966;2023-10-08T08:55:31;25.00;1.00
13744;DHT22;6943;52.368;9.966;2023-10-08T08:57:58;25.30;1.00
13744;DHT22;6943;52.368;9.966;2023-10-08T09:00:27;24.80;1.00
13744;DHT22;6943;52.368;9.966;2023-10-08T09:02:55;24.60;1.00
13744;DHT22;6943;52.368;9.966;2023-10-08T09:05:21;24.00;1.00
13744;DHT22;6943;52.368;9.966;2023-10-08T09:08:04;23.80;1.00
13744;DHT22;6943;52.368;9.966;2023-10-08T09:10:34;23.90;1.00
13744;DHT22;6943;52.368;9.966;2023-10-08T09:13:05;24.40;1.00
13744;DHT22;6943;52.368;9.966;2023-10-08T09:15:31;25.00;1.00
13744;DHT22;6943;52.368;9.966;2023-10-08T09:17:58;25.20;1.00
13744;DHT22;6943;52.368;9.966;2023-10-08T09:20:29;24.90;1.00
13744;DHT22;6943;52.368;9.966;2023-10-08T09:23:13;23.70;1.00
13744;DHT22;6943;52.368;9.966;2023-10-08T09:25:41;22.80;1.00
13744;DHT22;6943;52.368;9.966;2023-10-08T09:28:07;22.10;1.00
13744;DHT22;6943;52.368;9.966;2023-10-08T09:30:35;21.30;1.00
13744;DHT22;6943;52.368;9.966;2023-10-08T09:33:05;20.70;1.00
13744;DHT22;6943;52.368;9.966;2023-10-08T09:35:32;20.00;1.00
13744;DHT22;6943;52.368;9.966;2023-10-08T09:37:58;19.60;1.00
13744;DHT22;6943;52.368;9.966;2023-10-08T09:40:24;19.20;1.00
13744;DHT22;6943;52.368;9.966;2023-10-08T09:42:51;18.60;1.00
13744;DHT22;6943;52.368;9.966;2023-10-08T09:45:18;18.40;1.00
13744;DHT22;6943;52.368;9.966;2023-10-08T09:47:50;18.30;1.00
13744;DHT22;6943;52.368;9.966;2023-10-08T09:50:22;18.10;1.00
13744;DHT22;6943;52.368;9.966;2023-10-08T09:55:24;17.80;1.00
13744;DHT22;6943;52.368;9.966;2023-10-08T09:57:51;17.60;1.00
13744;DHT22;6943;52.368;9.966;2023-10-08T10:00:17;17.60;1.00
13744;DHT22;6943;52.368;9.966;2023-10-08T10:02:44;17.40;1.00
13744;DHT22;6943;52.368;9.966;2023-10-08T10:05:19;17.20;1.00
13744;DHT22;6943;52.368;9.966;2023-10-08T10:07:48;17.00;1.00
13744;DHT22;6943;52.368;9.966;2023-10-08T10:10:30;17.10;1.00
13744;DHT22;6943;52.368;9.966;2023-10-08T10:13:10;17.20;1.00
13744;DHT22;6943;52.368;9.966;2023-10-08T10:15:39;17.20;1.00
13744;DHT22;6943;52.368;9.966;2023-10-08T10:21:24;16.50;1.00
13744;DHT22;6943;52.368;9.966;2023-10-08T10:23:39;16.50;1.00
13744;DHT22;6943;52.368;9.966;2023-10-08T10:31:38;17.20;1.00
13744;DHT22;6943;52.368;9.966;2023-10-08T10:34:06;17.40;1.00
13744;DHT22;6943;52.368;9.966;2023-10-08T10:36:37;17.30;1.00
13744;DHT22;6943;52.368;9.966;2023-10-08T10:39:02;17.40;1.00
13744;DHT22;6943;52.368;9.966;2023-10-08T10:41:52;17.60;1.00
13744;DHT22;6943;52.368;9.966;2023-10-08T10:44:21;17.80;1.00
13744;DHT22;6943;52.368;9.966;2023-10-08T10:46:46;17.50;1.00
13744;DHT22;6943;52.368;9.966;2023-10-08T10:49:38;16.80;1.00
13744;DHT22;6943;52.368;9.966;2023-10-08T10:52:17;16.40;1.00
13744;DHT22;6943;52.368;9.966;2023-10-08T10:55:01;16.30;1.00
13744;DHT22;6943;52.368;9.966;2023-10-08T10:57:51;16.30;1.00
13744;DHT22;6943;52.368;9.966;2023-10-08T11:00:37;16.80;1.00
13744;DHT22;6943;52.368;9.966;2023-10-08T11:03:03;17.60;1.00
13744;DHT22;6943;52.368;9.966;2023-10-08T11:05:36;18.40;1.00
13744;DHT22;6943;52.368;9.966;2023-10-08T11:08:04;18.50;1.00
13744;DHT22;6943;52.368;9.966;2023-10-08T11:10:33;18.80;1.00
13744;DHT22;6943;52.368;9.966;2023-10-08T11:12:58;18.80;1.00
13744;DHT22;6943;52.368;9.966;2023-10-08T11:15:28;18.60;1.00
13744;DHT22;6943;52.368;9.966;2023-10-08T11:18:10;18.00;1.00
13744;DHT22;6943;52.368;9.966;2023-10-08T11:20:36;17.50;1.00
13744;DHT22;6943;52.368;9.966;2023-10-08T11:23:08;17.20;1.00
13744;DHT22;6943;52.368;9.966;2023-10-08T11:25:53;17.20;1.00
13744;DHT22;6943;52.368;9.966;2023-10-08T11:28:19;17.30;1.00
13744;DHT22;6943;52.368;9.966;2023-10-08T11:30:44;17.80;1.00
13744;DHT22;6943;52.368;9.966;2023-10-08T11:33:12;18.20;1.00
13744;DHT22;6943;52.368;9.966;2023-10-08T11:36:00;18.20;1.00
13744;DHT22;6943;52.368;9.966;2023-10-08T11:38:26;18.60;1.00
13744;DHT22;6943;52.368;9.966;2023-10-08T11:40:53;18.50;1.00
13744;DHT22;6943;52.368;9.966;2023-10-08T11:43:23;18.30;1.00
13744;DHT22;6943;52.368;9.966;2023-10-08T11:45:49;18.50;1.00
13744;DHT22;6943;52.368;9.966;2023-10-08T11:48:15;18.70;1.00
13744;DHT22;6943;52.368;9.966;2023-10-08T11:50:47;19.20;1.00
13744;DHT22;6943;52.368;9.966;2023-10-08T11:53:15;19.50;1.00
13744;DHT22;6943;52.368;9.966;2023-10-08T11:55:41;19.50;1.00
13744;DHT22;6943;52.368;9.966;2023-10-08T11:58:08;19.40;1.00
13744;DHT22;6943;52.368;9.966;2023-10-08T12:00:42;18.90;1.00
13744;DHT22;6943;52.368;9.966;2023-10-08T12:03:14;19.00;1.00
13744;DHT22;6943;52.368;9.966;2023-10-08T12:05:51;18.10;1.00
13744;DHT22;6943;52.368;9.966;2023-10-08T12:08:24;18.20;1.00
13744;DHT22;6943;52.368;9.966;2023-10-08T12:10:55;18.50;1.00
13744;DHT22;6943;52.368;9.966;2023-10-08T12:13:21;18.80;1.00
13744;DHT22;6943;52.368;9.966;2023-10-08T12:15:54;19.00;1.00
13744;DHT22;6943;52.368;9.966;2023-10-08T12:18:32;19.00;1.00
13744;DHT22;6943;52.368;9.966;2023-10-08T12:21:02;19.00;1.00
13744;DHT22;6943;52.368;9.966;2023-10-08T12:23:27;18.90;1.00
13744;DHT22;6943;52.368;9.966;2023-10-08T12:25:55;18.80;1.00
13744;DHT22;6943;52.368;9.966;2023-10-08T12:28:24;18.80;1.00
13744;DHT22;6943;52.368;9.966;2023-10-08T12:30:51;18.90;1.00
13744;DHT22;6943;52.368;9.966;2023-10-08T12:33:21;18.70;1.00
13744;DHT22;6943;52.368;9.966;2023-10-08T12:35:50;18.40;1.00
13744;DHT22;6943;52.368;9.966;2023-10-08T12:38:19;17.90;1.00
13744;DHT22;6943;52.368;9.966;2023-10-08T12:40:48;17.80;1.00
13744;DHT22;6943;52.368;9.966;2023-10-08T12:43:26;17.70;1.00
13744;DHT22;6943;52.368;9.966;2023-10-08T12:45:53;17.70;1.00
13744;DHT22;6943;52.368;9.966;2023-10-08T12:50:45;17.70;1.00
13744;DHT22;6943;52.368;9.966;2023-10-08T12:53:17;17.90;1.00
13744;DHT22;6943;52.368;9.966;2023-10-08T12:55:43;18.10;1.00
13744;DHT22;6943;52.368;9.966;2023-10-08T12:58:08;18.40;1.00
13744;DHT22;6943;52.368;9.966;2023-10-08T13:00:39;18.70;1.00
13744;DHT22;6943;52.368;9.966;2023-10-08T13:03:08;18.40;1.00
13744;DHT22;6943;52.368;9.966;2023-10-08T13:05:41;17.90;1.00
13744;DHT22;6943;52.368;9.966;2023-10-08T13:08:10;17.80;1.00
13744;DHT22;6943;52.368;9.966;2023-10-08T13:10:41;17.90;1.00
13744;DHT22;6943;52.368;9.966;2023-10-08T13:13:10;18.00;1.00
13744;DHT22;6943;52.368;9.966;2023-10-08T13:15:36;17.80;1.00
13744;DHT22;6943;52.368;9.966;2023-10-08T13:18:02;17.80;1.00
13744;DHT22;6943;52.368;9.966;2023-10-08T13:20:29;18.00;1.00
13744;DHT22;6943;52.368;9.966;2023-10-08T13:22:59;17.90;1.00
13744;DHT22;6943;52.368;9.966;2023-10-08T13:25:25;17.60;1.00
13744;DHT22;6943;52.368;9.966;2023-10-08T13:27:51;17.60;1.00
13744;DHT22;6943;52.368;9.966;2023-10-08T13:30:17;17.70;1.00
13744;DHT22;6943;52.368;9.966;2023-10-08T13:32:42;17.80;1.00
13744;DHT22;6943;52.368;9.966;2023-10-08T13:35:08;17.90;1.00
13744;DHT22;6943;52.368;9.966;2023-10-08T13:37:36;17.90;1.00
13744;DHT22;6943;52.368;9.966;2023-10-08T13:40:02;17.70;1.00
13744;DHT22;6943;52.368;9.966;2023-10-08T13:42:28;17.60;1.00
13744;DHT22;6943;52.368;9.966;2023-10-08T13:44:57;17.70;1.00
13744;DHT22;6943;52.368;9.966;2023-10-08T13:47:33;17.90;1.00
13744;DHT22;6943;52.368;9.966;2023-10-08T13:49:59;18.10;1.00
13744;DHT22;6943;52.368;9.966;2023-10-08T13:52:25;18.10;1.00
13744;DHT22;6943;52.368;9.966;2023-10-08T13:54:54;17.90;1.00
13744;DHT22;6943;52.368;9.966;2023-10-08T13:57:19;17.60;1.00
13744;DHT22;6943;52.368;9.966;2023-10-08T13:59:49;17.40;1.00
13744;DHT22;6943;52.368;9.966;2023-10-08T14:02:15;17.40;1.00
13744;DHT22;6943;52.368;9.966;2023-10-08T14:04:44;17.40;1.00
13744;DHT22;6943;52.368;9.966;2023-10-08T14:07:11;17.50;1.00
13744;DHT22;6943;52.368;9.966;2023-10-08T14:09:42;17.70;1.00
13744;DHT22;6943;52.368;9.966;2023-10-08T14:12:10;17.80;1.00
13744;DHT22;6943;52.368;9.966;2023-10-08T14:14:36;17.90;1.00
13744;DHT22;6943;52.368;9.966;2023-10-08T14:17:07;17.80;1.00
13744;DHT22;6943;52.368;9.966;2023-10-08T14:19:35;17.90;1.00
13744;DHT22;6943;52.368;9.966;2023-10-08T14:22:16;18.00;1.00
13744;DHT22;6943;52.368;9.966;2023-10-08T14:24:44;18.20;1.00
13744;DHT22;6943;52.368;9.966;2023-10-08T14:27:26;18.30;1.00
13744;DHT22;6943;52.368;9.966;2023-10-08T14:29:58;18.20;1.00
13744;DHT22;6943;52.368;9.966;2023-10-08T14:32:27;18.40;1.00
13744;DHT22;6943;52.368;9.966;2023-10-08T14:34:53;18.50;1.00
13744;DHT22;6943;52.368;9.966;2023-10-08T14:37:38;18.60;1.00
13744;DHT22;6943;52.368;9.966;2023-10-08T14:40:22;18.40;1.00
13744;DHT22;6943;52.368;9.966;2023-10-08T14:43:06;18.00;1.00
13744;DHT22;6943;52.368;9.966;2023-10-08T14:45:36;18.10;1.00
13744;DHT22;6943;52.368;9.966;2023-10-08T14:48:02;18.10;1.00
13744;DHT22;6943;52.368;9.966;2023-10-08T14:50:30;18.00;1.00
13744;DHT22;6943;52.368;9.966;2023-10-08T14:52:58;17.50;1.00
13744;DHT22;6943;52.368;9.966;2023-10-08T14:55:26;17.30;1.00
13744;DHT22;6943;52.368;9.966;2023-10-08T14:57:52;17.30;1.00
13744;DHT22;6943;52.368;9.966;2023-10-08T15:00:19;17.40;1.00
13744;DHT22;6943;52.368;9.966;2023-10-08T15:02:51;17.50;1.00
13744;DHT22;6943;52.368;9.966;2023-10-08T15:05:19;17.80;1.00
13744;DHT22;6943;52.368;9.966;2023-10-08T15:07:44;17.80;1.00
13744;DHT22;6943;52.368;9.966;2023-10-08T15:10:10;17.80;1.00
13744;DHT22;6943;52.368;9.966;2023-10-08T15:12:38;17.80;1.00
13744;DHT22;6943;52.368;9.966;2023-10-08T15:15:04;17.80;1.00
13744;DHT22;6943;52.368;9.966;2023-10-08T15:17:39;17.70;1.00
13744;DHT22;6943;52.368;9.966;2023-10-08T15:20:06;17.60;1.00
13744;DHT22;6943;52.368;9.966;2023-10-08T15:22:32;17.40;1.00
13744;DHT22;6943;52.368;9.966;2023-10-08T15:24:58;17.10;1.00
13744;DHT22;6943;52.368;9.966;2023-10-08T15:27:23;17.10;1.00
13744;DHT22;6943;52.368;9.966;2023-10-08T15:29:49;17.10;1.00
13744;DHT22;6943;52.368;9.966;2023-10-08T15:32:14;17.00;1.00
13744;DHT22;6943;52.368;9.966;2023-10-08T15:34:40;17.00;1.00
13744;DHT22;6943;52.368;9.966;2023-10-08T15:37:06;16.90;1.00
13744;DHT22;6943;52.368;9.966;2023-10-08T15:39:32;17.00;1.00
13744;DHT22;6943;52.368;9.966;2023-10-08T15:41:57;17.20;1.00
13744;DHT22;6943;52.368;9.966;2023-10-08T15:44:23;17.10;1.00
13744;DHT22;6943;52.368;9.966;2023-10-08T15:46:49;17.10;1.00
13744;DHT22;6943;52.368;9.966;2023-10-08T15:49:15;17.10;1.00
13744;DHT22;6943;52.368;9.966;2023-10-08T15:51:47;17.00;1.00
13744;DHT22;6943;52.368;9.966;2023-10-08T15:54:13;17.00;1.00
13744;DHT22;6943;52.368;9.966;2023-10-08T15:56:38;16.80;1.00
13744;DHT22;6943;52.368;9.966;2023-10-08T15:59:04;16.70;1.00
13744;DHT22;6943;52.368;9.966;2023-10-08T16:01:29;16.70;1.00
13744;DHT22;6943;52.368;9.966;2023-10-08T16:03:55;16.60;1.00
13744;DHT22;6943;52.368;9.966;2023-10-08T16:06:21;16.50;1.00
13744;DHT22;6943;52.368;9.966;2023-10-08T16:08:47;16.40;1.00
13744;DHT22;6943;52.368;9.966;2023-10-08T16:11:13;16.30;1.00
13744;DHT22;6943;52.368;9.966;2023-10-08T16:13:39;16.30;1.00
13744;DHT22;6943;52.368;9.966;2023-10-08T16:16:06;16.20;1.00
13744;DHT22;6943;52.368;9.966;2023-10-08T16:18:36;16.10;1.00
13744;DHT22;6943;52.368;9.966;2023-10-08T16:21:05;16.00;1.00
13744;DHT22;6943;52.368;9.966;2023-10-08T16:23:36;15.90;1.00
13744;DHT22;6943;52.368;9.966;2023-10-08T16:26:03;15.90;1.00
13744;DHT22;6943;52.368;9.966;2023-10-08T16:28:28;15.60;99.90
13744;DHT22;6943;52.368;9.966;2023-10-08T16:30:56;15.50;99.90
13744;DHT22;6943;52.368;9.966;2023-10-08T16:33:23;15.40;1.00
13744;DHT22;6943;52.368;9.966;2023-10-08T16:35:49;15.40;1.00
13744;DHT22;6943;52.368;9.966;2023-10-08T16:38:20;15.40;1.00